sensor_id;sensor_type;location;lat;lon;timestamp;pressure;altitude;pressure_sealevel;temperature;humidity
8697;BME280;4385;48.848;8.924;2023-04-10T00:01:38;97982.00;;;18.08;100.00
8697;BME280;4385;48.848;8.924;2023-04-10T00:04:03;97980.34;;;18.07;100.00
8697;BME280;4385;48.848;8.924;2023-04-10T00:06:30;97971.00;;;18.06;100.00
8697;BME280;4385;48.848;8.924;2023-04-10T00:08:56;97971.06;;;18.03;100.00
8697;BME280;4385;48.848;8.924;2023-04-10T00:11:21;97977.88;;;18.01;100.00
8697;BME280;4385;48.848;8.924;2023-04-10T00:13:46;97967.72;;;17.97;100.00
8697;BME280;4385;48.848;8.924;2023-04-10T00:16:12;97966.06;;;17.94;100.00
8697;BME280;4385;48.848;8.924;2023-04-10T00:18:37;97967.78;;;17.92;100.00
8697;BME280;4385;48.848;8.924;2023-04-10T00:21:02;97958.47;;;17.89;100.00
8697;BME280;4385;48.848;8.924;2023-04-10T00:23:28;97964.41;;;17.88;100.00
8697;BME280;4385;48.848;8.924;2023-04-10T00:25:56;97954.25;;;17.87;100.00
8697;BME280;4385;48.848;8.924;2023-04-10T00:28:21;97948.34;;;17.85;100.00
8697;BME280;4385;48.848;8.924;2023-04-10T00:30:47;97950.03;;;17.84;100.00
8697;BME280;4385;48.848;8.924;2023-04-10T00:33:12;97947.50;;;17.82;100.00
8697;BME280;4385;48.848;8.924;2023-04-10T00:35:37;97950.06;;;17.81;100.00
8697;BME280;4385;48.848;8.924;2023-04-10T00:38:03;97944.13;;;17.80;100.00
8697;BME280;4385;48.848;8.924;2023-04-10T00:40:28;97945.00;;;17.79;100.00
8697;BME280;4385;48.848;8.924;2023-04-10T00:42:54;97950.09;;;17.79;100.00
8697;BME280;4385;48.848;8.924;2023-04-10T00:45:19;97939.06;;;17.77;100.00
8697;BME280;4385;48.848;8.924;2023-04-10T00:47:45;97937.38;;;17.76;100.00
8697;BME280;4385;48.848;8.924;2023-04-10T00:50:10;97939.94;;;17.75;100.00
8697;BME280;4385;48.848;8.924;2023-04-10T00:52:36;97947.59;;;17.75;100.00
8697;BME280;4385;48.848;8.924;2023-04-10T00:55:01;97940.84;;;17.72;100.00
8697;BME280;4385;48.848;8.924;2023-04-10T00:57:27;97936.56;;;17.71;100.00
8697;BME280;4385;48.848;8.924;2023-04-10T00:59:53;97940.00;;;17.70;100.00
8697;BME280;4385;48.848;8.924;2023-04-10T01:02:18;97942.59;;;17.67;100.00
8697;BME280;4385;48.848;8.924;2023-04-10T01:04:44;97940.06;;;17.64;100.00
8697;BME280;4385;48.848;8.924;2023-04-10T01:12:59;97945.19;;;17.61;100.00
8697;BME280;4385;48.848;8.924;2023-04-10T01:15:36;97946.91;;;17.58;100.00
8697;BME280;4385;48.848;8.924;2023-04-10T01:18:25;97942.69;;;17.57;100.00
8697;BME280;4385;48.848;8.924;2023-04-10T01:20:55;97951.22;;;17.56;100.00
8697;BME280;4385;48.848;8.924;2023-04-10T01:25:58;97946.13;;;17.55;100.00
8697;BME280;4385;48.848;8.924;2023-04-10T01:28:59;97949.50;;;17.54;100.00
8697;BME280;4385;48.848;8.924;2023-04-10T01:31:31;97944.44;;;17.52;100.00
8697;BME280;4385;48.848;8.924;2023-04-10T01:34:07;97942.75;;;17.51;100.00
8697;BME280;4385;48.848;8.924;2023-04-10T01:36:39;97935.13;;;17.50;100.00
8697;BME280;4385;48.848;8.924;2023-04-10T01:39:11;97938.56;;;17.49;100.00
8697;BME280;4385;48.848;8.924;2023-04-10T01:41:40;97940.25;;;17.48;100.00
8697;BME280;4385;48.848;8.924;2023-04-10T01:44:06;97940.25;;;17.47;100.00
8697;BME280;4385;48.848;8.924;2023-04-10T01:46:32;97934.34;;;17.43;100.00
8697;BME280;4385;48.848;8.924;2023-04-10T01:48:59;97938.63;;;17.42;100.00
8697;BME280;4385;48.848;8.924;2023-04-10T01:51:26;97936.09;;;17.41;100.00
8697;BME280;4385;48.848;8.924;2023-04-10T01:53:51;97940.34;;;17.39;100.00
8697;BME280;4385;48.848;8.924;2023-04-10T01:56:17;97931.03;;;17.38;100.00
8697;BME280;4385;48.848;8.924;2023-04-10T01:58:43;97931.03;;;17.38;100.00
8697;BME280;4385;48.848;8.924;2023-04-10T02:01:08;97942.94;;;17.36;100.00
8697;BME280;4385;48.848;8.924;2023-04-10T02:03:34;97942.09;;;17.33;100.00
8697;BME280;4385;48.848;8.924;2023-04-10T02:06:14;97943.81;;;17.33;100.00
8697;BME280;4385;48.848;8.924;2023-04-10T02:11:24;97941.28;;;17.31;100.00
8697;BME280;4385;48.848;8.924;2023-04-10T02:13:55;97940.44;;;17.29;100.00
8697;BME280;4385;48.848;8.924;2023-04-10T02:16:23;97931.94;;;17.29;100.00
8697;BME280;4385;48.848;8.924;2023-04-10T02:18:50;97932.78;;;17.29;100.00
8697;BME280;4385;48.848;8.924;2023-04-10T02:21:17;97936.22;;;17.28;100.00
8697;BME280;4385;48.848;8.924;2023-04-10T02:23:42;97931.13;;;17.27;100.00
8697;BME280;4385;48.848;8.924;2023-04-10T02:26:08;97930.28;;;17.26;100.00
8697;BME280;4385;48.848;8.924;2023-04-10T02:28:33;97931.16;;;17.25;100.00
8697;BME280;4385;48.848;8.924;2023-04-10T02:30:59;97934.53;;;17.24;100.00
8697;BME280;4385;48.848;8.924;2023-04-10T02:33:24;97931.19;;;17.22;100.00
8697;BME280;4385;48.848;8.924;2023-04-10T02:35:50;97937.97;;;17.22;100.00
8697;BME280;4385;48.848;8.924;2023-04-10T02:38:15;97934.56;;;17.21;100.00
8697;BME280;4385;48.848;8.924;2023-04-10T02:40:40;97941.41;;;17.19;100.00
8697;BME280;4385;48.848;8.924;2023-04-10T02:43:05;97938.88;;;17.17;100.00
8697;BME280;4385;48.848;8.924;2023-04-10T02:45:31;97940.56;;;17.17;100.00
8697;BME280;4385;48.848;8.924;2023-04-10T02:47:57;97940.56;;;17.15;100.00
8697;BME280;4385;48.848;8.924;2023-04-10T02:50:22;97939.72;;;17.15;100.00
8697;BME280;4385;48.848;8.924;2023-04-10T02:52:48;97933.81;;;17.14;100.00
8697;BME280;4385;48.848;8.924;2023-04-10T02:55:13;97935.50;;;17.14;100.00
8697;BME280;4385;48.848;8.924;2023-04-10T02:57:40;97940.59;;;17.14;100.00
8697;BME280;4385;48.848;8.924;2023-04-10T03:00:07;97936.38;;;17.13;100.00
8697;BME280;4385;48.848;8.924;2023-04-10T03:02:32;97932.97;;;17.12;100.00
8697;BME280;4385;48.848;8.924;2023-04-10T03:05:00;97932.13;;;17.10;100.00
8697;BME280;4385;48.848;8.924;2023-04-10T03:07:25;97927.88;;;17.11;100.00
8697;BME280;4385;48.848;8.924;2023-04-10T03:09:51;97927.06;;;17.08;100.00
8697;BME280;4385;48.848;8.924;2023-04-10T03:12:16;97927.06;;;17.08;100.00
8697;BME280;4385;48.848;8.924;2023-04-10T03:14:42;97922.81;;;17.07;100.00
8697;BME280;4385;48.848;8.924;2023-04-10T03:17:07;97927.06;;;17.08;100.00
8697;BME280;4385;48.848;8.924;2023-04-10T03:19:33;97920.28;;;17.07;100.00
8697;BME280;4385;48.848;8.924;2023-04-10T03:21:58;97916.84;;;17.07;100.00
8697;BME280;4385;48.848;8.924;2023-04-10T03:24:23;97926.22;;;17.06;100.00
8697;BME280;4385;48.848;8.924;2023-04-10T03:26:48;97921.13;;;17.05;100.00
8697;BME280;4385;48.848;8.924;2023-04-10T03:29:14;97921.16;;;17.03;100.00
8697;BME280;4385;48.848;8.924;2023-04-10T03:31:43;97921.16;;;17.02;100.00
8697;BME280;4385;48.848;8.924;2023-04-10T03:34:08;97922.84;;;17.01;100.00
8697;BME280;4385;48.848;8.924;2023-04-10T03:36:33;97911.84;;;16.99;100.00
8697;BME280;4385;48.848;8.924;2023-04-10T03:38:58;97902.50;;;16.98;100.00
8697;BME280;4385;48.848;8.924;2023-04-10T03:41:24;97905.06;;;16.98;100.00
8697;BME280;4385;48.848;8.924;2023-04-10T03:43:49;97907.59;;;16.98;100.00
8697;BME280;4385;48.848;8.924;2023-04-10T03:46:15;97910.16;;;16.97;100.00
8697;BME280;4385;48.848;8.924;2023-04-10T03:48:41;97905.06;;;16.97;100.00
8697;BME280;4385;48.848;8.924;2023-04-10T03:51:06;97900.88;;;16.94;100.00
8697;BME280;4385;48.848;8.924;2023-04-10T03:53:32;97896.63;;;16.93;100.00
8697;BME280;4385;48.848;8.924;2023-04-10T03:56:00;97900.88;;;16.92;100.00
8697;BME280;4385;48.848;8.924;2023-04-10T03:58:26;97899.16;;;16.91;100.00
8697;BME280;4385;48.848;8.924;2023-04-10T04:00:51;97889.00;;;16.91;100.00
8697;BME280;4385;48.848;8.924;2023-04-10T04:03:16;97883.09;;;16.89;100.00
8697;BME280;4385;48.848;8.924;2023-04-10T04:05:42;97883.94;;;16.87;100.00
8697;BME280;4385;48.848;8.924;2023-04-10T04:08:07;97878.88;;;16.83;100.00
8697;BME280;4385;48.848;8.924;2023-04-10T04:10:32;97872.13;;;16.82;100.00
8697;BME280;4385;48.848;8.924;2023-04-10T04:12:57;97872.13;;;16.81;100.00
8697;BME280;4385;48.848;8.924;2023-04-10T04:15:23;97870.44;;;16.81;100.00
8697;BME280;4385;48.848;8.924;2023-04-10T04:17:48;97871.28;;;16.80;100.00
8697;BME280;4385;48.848;8.924;2023-04-10T04:20:14;97876.34;;;16.80;100.00
8697;BME280;4385;48.848;8.924;2023-04-10T04:22:39;97876.38;;;16.79;100.00
8697;BME280;4385;48.848;8.924;2023-04-10T04:25:06;97873.00;;;16.78;100.00
8697;BME280;4385;48.848;8.924;2023-04-10T04:27:34;97878.94;;;16.77;100.00
8697;BME280;4385;48.848;8.924;2023-04-10T04:30:00;97875.56;;;16.78;100.00
8697;BME280;4385;48.848;8.924;2023-04-10T04:32:26;97880.66;;;16.78;100.00
8697;BME280;4385;48.848;8.924;2023-04-10T04:34:52;97876.34;;;16.80;100.00
8697;BME280;4385;48.848;8.924;2023-04-10T04:37:17;97878.06;;;16.81;100.00
8697;BME280;4385;48.848;8.924;2023-04-10T04:39:42;97875.50;;;16.85;100.00
8697;BME280;4385;48.848;8.924;2023-04-10T04:42:07;97882.25;;;16.86;100.00
8697;BME280;4385;48.848;8.924;2023-04-10T04:44:33;97883.94;;;16.87;100.00
8697;BME280;4385;48.848;8.924;2023-04-10T04:46:59;97887.31;;;16.89;100.00
8697;BME280;4385;48.848;8.924;2023-04-10T04:49:24;97878.81;;;16.90;100.00
8697;BME280;4385;48.848;8.924;2023-04-10T04:51:50;97880.53;;;16.91;100.00
8697;BME280;4385;48.848;8.924;2023-04-10T04:54:15;97888.97;;;16.93;100.00
8697;BME280;4385;48.848;8.924;2023-04-10T04:56:40;97893.25;;;16.92;100.00
8697;BME280;4385;48.848;8.924;2023-04-10T04:59:06;97892.38;;;16.92;100.00
8697;BME280;4385;48.848;8.924;2023-04-10T05:01:31;97894.06;;;16.93;100.00
8697;BME280;4385;48.848;8.924;2023-04-10T05:03:56;97890.69;;;16.94;100.00
8697;BME280;4385;48.848;8.924;2023-04-10T05:06:21;97896.59;;;16.94;100.00
8697;BME280;4385;48.848;8.924;2023-04-10T05:08:47;97899.13;;;16.96;100.00
8697;BME280;4385;48.848;8.924;2023-04-10T05:11:12;97900.84;;;16.97;100.00
8697;BME280;4385;48.848;8.924;2023-04-10T05:13:37;97894.88;;;16.97;100.00
8697;BME280;4385;48.848;8.924;2023-04-10T05:16:03;97900.84;;;16.97;100.00
8697;BME280;4385;48.848;8.924;2023-04-10T05:18:28;97894.88;;;16.97;100.00
8697;BME280;4385;48.848;8.924;2023-04-10T05:20:53;97899.97;;;16.97;100.00
8697;BME280;4385;48.848;8.924;2023-04-10T05:23:18;97901.69;;;16.96;100.00
8697;BME280;4385;48.848;8.924;2023-04-10T05:25:44;97900.84;;;16.95;100.00
8697;BME280;4385;48.848;8.924;2023-04-10T05:28:10;97900.88;;;16.94;100.00
8697;BME280;4385;48.848;8.924;2023-04-10T05:30:35;97901.69;;;16.94;100.00
8697;BME280;4385;48.848;8.924;2023-04-10T05:33:00;97897.44;;;16.95;100.00
8697;BME280;4385;48.848;8.924;2023-04-10T05:35:25;97895.78;;;16.94;100.00
8697;BME280;4385;48.848;8.924;2023-04-10T05:37:51;97892.34;;;16.95;100.00
8697;BME280;4385;48.848;8.924;2023-04-10T05:40:16;97894.03;;;16.96;100.00
8697;BME280;4385;48.848;8.924;2023-04-10T05:42:41;97900.84;;;16.95;100.00
8697;BME280;4385;48.848;8.924;2023-04-10T05:45:07;97905.06;;;16.97;100.00
8697;BME280;4385;48.848;8.924;2023-04-10T05:47:32;97910.16;;;16.97;100.00
8697;BME280;4385;48.848;8.924;2023-04-10T05:49:58;97912.69;;;16.98;100.00
8697;BME280;4385;48.848;8.924;2023-04-10T05:52:23;97909.28;;;16.99;100.00
8697;BME280;4385;48.848;8.924;2023-04-10T05:54:48;97910.16;;;16.98;100.00
8697;BME280;4385;48.848;8.924;2023-04-10T05:57:14;97911.84;;;16.99;100.00
8697;BME280;4385;48.848;8.924;2023-04-10T05:59:39;97908.44;;;17.00;100.00
8697;BME280;4385;48.848;8.924;2023-04-10T06:02:05;97907.56;;;17.01;100.00
8697;BME280;4385;48.848;8.924;2023-04-10T06:04:30;97911.81;;;17.01;100.00
8697;BME280;4385;48.848;8.924;2023-04-10T06:06:56;97908.44;;;17.02;100.00
8697;BME280;4385;48.848;8.924;2023-04-10T06:09:22;97913.53;;;17.02;100.00
8697;BME280;4385;48.848;8.924;2023-04-10T06:11:47;97911.78;;;17.02;100.00
8697;BME280;4385;48.848;8.924;2023-04-10T06:14:12;97908.44;;;17.02;100.00
8697;BME280;4385;48.848;8.924;2023-04-10T06:16:38;97900.78;;;17.03;100.00
8697;BME280;4385;48.848;8.924;2023-04-10T06:19:03;97908.41;;;17.03;100.00
8697;BME280;4385;48.848;8.924;2023-04-10T06:21:28;97906.72;;;17.02;100.00
8697;BME280;4385;48.848;8.924;2023-04-10T06:23:53;97906.72;;;17.02;100.00
8697;BME280;4385;48.848;8.924;2023-04-10T06:26:19;97899.94;;;17.01;100.00
8697;BME280;4385;48.848;8.924;2023-04-10T06:28:44;97902.47;;;17.01;100.00
8697;BME280;4385;48.848;8.924;2023-04-10T06:31:11;97902.47;;;17.01;100.00
8697;BME280;4385;48.848;8.924;2023-04-10T06:33:36;97895.72;;;17.00;100.00
8697;BME280;4385;48.848;8.924;2023-04-10T06:36:02;97900.81;;;17.00;100.00
8697;BME280;4385;48.848;8.924;2023-04-10T06:38:28;97903.34;;;17.00;100.00
8697;BME280;4385;48.848;8.924;2023-04-10T06:40:53;97893.16;;;17.00;100.00
8697;BME280;4385;48.848;8.924;2023-04-10T06:43:18;97892.31;;;17.01;100.00
8697;BME280;4385;48.848;8.924;2023-04-10T06:45:44;97891.44;;;17.02;100.00
8697;BME280;4385;48.848;8.924;2023-04-10T06:48:10;97887.19;;;17.04;100.00
8697;BME280;4385;48.848;8.924;2023-04-10T06:50:35;97888.03;;;17.03;100.00
8697;BME280;4385;48.848;8.924;2023-04-10T06:53:00;97888.84;;;17.05;100.00
8697;BME280;4385;48.848;8.924;2023-04-10T06:55:25;97884.63;;;17.06;100.00
8697;BME280;4385;48.848;8.924;2023-04-10T06:57:51;97877.84;;;17.08;100.00
8697;BME280;4385;48.848;8.924;2023-04-10T07:00:17;97873.56;;;17.08;100.00
8697;BME280;4385;48.848;8.924;2023-04-10T07:02:43;97877.84;;;17.10;100.00
8697;BME280;4385;48.848;8.924;2023-04-10T07:05:08;97876.97;;;17.11;100.00
8697;BME280;4385;48.848;8.924;2023-04-10T07:07:33;97878.63;;;17.12;100.00
8697;BME280;4385;48.848;8.924;2023-04-10T07:09:59;97870.16;;;17.13;100.00
8697;BME280;4385;48.848;8.924;2023-04-10T07:12:24;97879.50;;;17.12;100.00
8697;BME280;4385;48.848;8.924;2023-04-10T07:14:50;97881.16;;;17.13;100.00
8697;BME280;4385;48.848;8.924;2023-04-10T07:17:16;97877.78;;;17.14;100.00
8697;BME280;4385;48.848;8.924;2023-04-10T07:19:41;97873.50;;;17.15;100.00
8697;BME280;4385;48.848;8.924;2023-04-10T07:22:06;97886.22;;;17.16;100.00
8697;BME280;4385;48.848;8.924;2023-04-10T07:24:32;97875.19;;;17.17;100.00
8697;BME280;4385;48.848;8.924;2023-04-10T07:26:57;97876.91;;;17.17;100.00
8697;BME280;4385;48.848;8.924;2023-04-10T07:29:22;97879.44;;;17.18;100.00
8697;BME280;4385;48.848;8.924;2023-04-10T07:31:48;97877.78;;;17.16;100.00
8697;BME280;4385;48.848;8.924;2023-04-10T07:34:13;97877.75;;;17.17;100.00
8697;BME280;4385;48.848;8.924;2023-04-10T07:36:38;97881.09;;;17.19;100.00
8697;BME280;4385;48.848;8.924;2023-04-10T07:39:04;97876.00;;;17.19;100.00
8697;BME280;4385;48.848;8.924;2023-04-10T07:41:29;97873.47;;;17.19;100.00
8697;BME280;4385;48.848;8.924;2023-04-10T07:43:55;97881.97;;;17.20;100.00
8697;BME280;4385;48.848;8.924;2023-04-10T07:46:20;97879.41;;;17.20;100.00
8697;BME280;4385;48.848;8.924;2023-04-10T07:48:46;97886.16;;;17.23;100.00
8697;BME280;4385;48.848;8.924;2023-04-10T07:51:12;97876.81;;;17.23;100.00
8697;BME280;4385;48.848;8.924;2023-04-10T07:53:37;97878.50;;;17.26;100.00
8697;BME280;4385;48.848;8.924;2023-04-10T07:56:03;97871.69;;;17.26;100.00
8697;BME280;4385;48.848;8.924;2023-04-10T07:58:29;97871.69;;;17.26;100.00
8697;BME280;4385;48.848;8.924;2023-04-10T08:00:56;97873.41;;;17.26;100.00
8697;BME280;4385;48.848;8.924;2023-04-10T08:03:21;97866.63;;;17.25;100.00
8697;BME280;4385;48.848;8.924;2023-04-10T08:05:47;97865.78;;;17.23;100.00
8697;BME280;4385;48.848;8.924;2023-04-10T08:08:14;97866.69;;;17.20;100.00
8697;BME280;4385;48.848;8.924;2023-04-10T08:10:39;97861.59;;;17.18;100.00
8697;BME280;4385;48.848;8.924;2023-04-10T08:13:05;97859.91;;;17.19;100.00
8697;BME280;4385;48.848;8.924;2023-04-10T08:15:30;97864.13;;;17.22;100.00
8697;BME280;4385;48.848;8.924;2023-04-10T08:17:55;97866.66;;;17.23;100.00
8697;BME280;4385;48.848;8.924;2023-04-10T08:20:21;97859.84;;;17.24;100.00
8697;BME280;4385;48.848;8.924;2023-04-10T08:22:46;97858.13;;;17.24;100.00
8697;BME280;4385;48.848;8.924;2023-04-10T08:25:12;97862.38;;;17.25;100.00
8697;BME280;4385;48.848;8.924;2023-04-10T08:27:37;97867.47;;;17.25;100.00
8697;BME280;4385;48.848;8.924;2023-04-10T08:30:03;97863.22;;;17.26;100.00
8697;BME280;4385;48.848;8.924;2023-04-10T08:32:28;97867.47;;;17.25;100.00
8697;BME280;4385;48.848;8.924;2023-04-10T08:34:54;97856.44;;;17.25;100.00
8697;BME280;4385;48.848;8.924;2023-04-10T08:37:20;97858.13;;;17.24;100.00
8697;BME280;4385;48.848;8.924;2023-04-10T08:39:45;97858.13;;;17.24;100.00
8697;BME280;4385;48.848;8.924;2023-04-10T08:42:11;97859.84;;;17.25;100.00
8697;BME280;4385;48.848;8.924;2023-04-10T08:44:36;97856.44;;;17.25;100.00
8697;BME280;4385;48.848;8.924;2023-04-10T08:47:02;97859.84;;;17.25;100.00
8697;BME280;4385;48.848;8.924;2023-04-10T08:49:44;97863.19;;;17.27;100.00
8697;BME280;4385;48.848;8.924;2023-04-10T08:52:19;97867.44;;;17.28;100.00
8697;BME280;4385;48.848;8.924;2023-04-10T08:54:47;97856.38;;;17.29;100.00
8697;BME280;4385;48.848;8.924;2023-04-10T08:57:15;97858.91;;;17.32;100.00
8697;BME280;4385;48.848;8.924;2023-04-10T08:59:49;97860.56;;;17.33;100.00
8697;BME280;4385;48.848;8.924;2023-04-10T09:02:16;97862.28;;;17.35;100.00
8697;BME280;4385;48.848;8.924;2023-04-10T09:04:47;97863.09;;;17.37;100.00
8697;BME280;4385;48.848;8.924;2023-04-10T09:07:13;97854.59;;;17.38;100.00
8697;BME280;4385;48.848;8.924;2023-04-10T09:09:39;97857.94;;;17.40;100.00
8697;BME280;4385;48.848;8.924;2023-04-10T09:12:04;97856.28;;;17.39;100.00
8697;BME280;4385;48.848;8.924;2023-04-10T09:14:33;97846.94;;;17.39;100.00
8697;BME280;4385;48.848;8.924;2023-04-10T09:17:18;97841.81;;;17.41;100.00
8697;BME280;4385;48.848;8.924;2023-04-10T09:19:49;97837.56;;;17.40;100.00
8697;BME280;4385;48.848;8.924;2023-04-10T09:22:15;97836.72;;;17.41;100.00
8697;BME280;4385;48.848;8.924;2023-04-10T09:24:42;97828.25;;;17.40;100.00
8697;BME280;4385;48.848;8.924;2023-04-10T09:27:08;97822.28;;;17.41;100.00
8697;BME280;4385;48.848;8.924;2023-04-10T09:29:44;97816.38;;;17.39;100.00
8697;BME280;4385;48.848;8.924;2023-04-10T09:32:12;97812.94;;;17.40;100.00
8697;BME280;4385;48.848;8.924;2023-04-10T09:34:52;97811.25;;;17.41;100.00
8697;BME280;4385;48.848;8.924;2023-04-10T09:37:18;97808.69;;;17.42;100.00
8697;BME280;4385;48.848;8.924;2023-04-10T09:39:45;97805.28;;;17.43;100.00
8697;BME280;4385;48.848;8.924;2023-04-10T09:42:10;97811.22;;;17.42;100.00
8697;BME280;4385;48.848;8.924;2023-04-10T09:44:38;97800.19;;;17.42;100.00
8697;BME280;4385;48.848;8.924;2023-04-10T09:49:50;97791.72;;;17.40;100.00
8697;BME280;4385;48.848;8.924;2023-04-10T09:52:34;97795.13;;;17.39;100.00
8697;BME280;4385;48.848;8.924;2023-04-10T09:55:01;97787.47;;;17.40;100.00
8697;BME280;4385;48.848;8.924;2023-04-10T09:57:31;97778.13;;;17.41;100.00
8697;BME280;4385;48.848;8.924;2023-04-10T10:00:00;97770.50;;;17.41;100.00
8697;BME280;4385;48.848;8.924;2023-04-10T10:02:29;97764.53;;;17.42;100.00
8697;BME280;4385;48.848;8.924;2023-04-10T10:04:57;97764.56;;;17.40;100.00
8697;BME280;4385;48.848;8.924;2023-04-10T10:07:24;97760.31;;;17.39;100.00
8697;BME280;4385;48.848;8.924;2023-04-10T10:09:51;97757.78;;;17.39;100.00
8697;BME280;4385;48.848;8.924;2023-04-10T10:12:23;97753.53;;;17.38;100.00
8697;BME280;4385;48.848;8.924;2023-04-10T10:15:06;97751.84;;;17.39;100.00
8697;BME280;4385;48.848;8.924;2023-04-10T10:17:38;97739.09;;;17.39;100.00
8697;BME280;4385;48.848;8.924;2023-04-10T10:20:08;97738.25;;;17.37;100.00
8697;BME280;4385;48.848;8.924;2023-04-10T10:22:35;97730.63;;;17.37;100.00
8697;BME280;4385;48.848;8.924;2023-04-10T10:25:02;97729.81;;;17.36;100.00
8697;BME280;4385;48.848;8.924;2023-04-10T10:27:30;97728.06;;;17.37;100.00
8697;BME280;4385;48.848;8.924;2023-04-10T10:29:58;97725.53;;;17.37;100.00
8697;BME280;4385;48.848;8.924;2023-04-10T10:32:25;97724.72;;;17.36;100.00
8697;BME280;4385;48.848;8.924;2023-04-10T10:34:52;97717.88;;;17.37;100.00
8697;BME280;4385;48.848;8.924;2023-04-10T10:37:20;97706.00;;;17.37;100.00
8697;BME280;4385;48.848;8.924;2023-04-10T10:40:03;97708.53;;;17.37;100.00
8697;BME280;4385;48.848;8.924;2023-04-10T10:42:41;97699.22;;;17.38;100.00
8697;BME280;4385;48.848;8.924;2023-04-10T10:45:14;97701.75;;;17.38;100.00
8697;BME280;4385;48.848;8.924;2023-04-10T10:47:47;97700.88;;;17.39;100.00
8697;BME280;4385;48.848;8.924;2023-04-10T10:50:14;97701.75;;;17.39;100.00
8697;BME280;4385;48.848;8.924;2023-04-10T10:52:40;97698.31;;;17.40;100.00
8697;BME280;4385;48.848;8.924;2023-04-10T11:00:18;97693.19;;;17.42;100.00
8697;BME280;4385;48.848;8.924;2023-04-10T11:02:44;97692.31;;;17.44;98.99
8697;BME280;4385;48.848;8.924;2023-04-10T11:05:10;97689.72;;;17.46;98.42
8697;BME280;4385;48.848;8.924;2023-04-10T11:13:30;97675.22;;;17.51;96.37
8697;BME280;4385;48.848;8.924;2023-04-10T11:15:56;97678.63;;;17.52;95.07
8697;BME280;4385;48.848;8.924;2023-04-10T11:21:19;97677.72;;;17.54;94.40
8697;BME280;4385;48.848;8.924;2023-04-10T11:31:43;97670.97;;;17.53;93.64
8697;BME280;4385;48.848;8.924;2023-04-10T11:34:10;97673.47;;;17.55;92.35
8697;BME280;4385;48.848;8.924;2023-04-10T11:36:40;97667.53;;;17.54;91.77
8697;BME280;4385;48.848;8.924;2023-04-10T11:39:13;97659.00;;;17.57;90.76
8697;BME280;4385;48.848;8.924;2023-04-10T11:41:50;97660.66;;;17.60;90.39
8697;BME280;4385;48.848;8.924;2023-04-10T11:44:32;97658.09;;;17.61;89.83
8697;BME280;4385;48.848;8.924;2023-04-10T11:47:03;97652.13;;;17.62;89.73
8697;BME280;4385;48.848;8.924;2023-04-10T11:49:30;97641.84;;;17.67;88.36
8697;BME280;4385;48.848;8.924;2023-04-10T11:51:56;97637.59;;;17.67;88.55
8697;BME280;4385;48.848;8.924;2023-04-10T11:54:24;97629.09;;;17.68;88.40
8697;BME280;4385;48.848;8.924;2023-04-10T11:57:02;97627.34;;;17.72;88.40
8697;BME280;4385;48.848;8.924;2023-04-10T11:59:32;97623.06;;;17.73;88.47
8697;BME280;4385;48.848;8.924;2023-04-10T12:02:12;97606.94;;;17.74;86.30
8697;BME280;4385;48.848;8.924;2023-04-10T12:04:39;97610.28;;;17.74;87.34
8697;BME280;4385;48.848;8.924;2023-04-10T12:07:05;97612.81;;;17.76;87.66
8697;BME280;4385;48.848;8.924;2023-04-10T12:09:31;97614.53;;;17.75;87.48
8697;BME280;4385;48.848;8.924;2023-04-10T12:14:43;97614.53;;;17.75;87.44
8697;BME280;4385;48.848;8.924;2023-04-10T12:17:09;97612.00;;;17.75;87.45
8697;BME280;4385;48.848;8.924;2023-04-10T12:19:36;97612.00;;;17.75;87.21
8697;BME280;4385;48.848;8.924;2023-04-10T12:22:02;97606.03;;;17.76;87.07
8697;BME280;4385;48.848;8.924;2023-04-10T12:24:51;97600.00;;;17.79;93.83
8697;BME280;4385;48.848;8.924;2023-04-10T12:27:18;97600.81;;;17.82;95.83
8697;BME280;4385;48.848;8.924;2023-04-10T12:29:45;97593.09;;;17.87;97.67
8697;BME280;4385;48.848;8.924;2023-04-10T12:32:10;97602.31;;;17.93;98.41
8697;BME280;4385;48.848;8.924;2023-04-10T12:34:36;97592.06;;;17.96;94.37
8697;BME280;4385;48.848;8.924;2023-04-10T12:37:01;97586.03;;;18.02;91.26
8697;BME280;4385;48.848;8.924;2023-04-10T12:39:28;97582.53;;;18.06;89.38
8697;BME280;4385;48.848;8.924;2023-04-10T12:42:09;97564.66;;;18.07;89.15
8697;BME280;4385;48.848;8.924;2023-04-10T12:44:48;97571.41;;;18.12;89.69
8697;BME280;4385;48.848;8.924;2023-04-10T12:47:14;97576.47;;;18.13;90.21
8697;BME280;4385;48.848;8.924;2023-04-10T12:49:39;97568.00;;;18.13;90.25
8697;BME280;4385;48.848;8.924;2023-04-10T12:52:05;97562.91;;;18.13;89.27
8697;BME280;4385;48.848;8.924;2023-04-10T12:54:32;97562.91;;;18.13;88.16
8697;BME280;4385;48.848;8.924;2023-04-10T12:56:58;97563.72;;;18.13;87.55
8697;BME280;4385;48.848;8.924;2023-04-10T12:59:25;97560.34;;;18.13;86.61
8697;BME280;4385;48.848;8.924;2023-04-10T13:01:51;97554.41;;;18.11;86.39
8697;BME280;4385;48.848;8.924;2023-04-10T13:04:16;97548.47;;;18.08;86.56
8697;BME280;4385;48.848;8.924;2023-04-10T13:06:46;97556.13;;;18.08;86.76
8697;BME280;4385;48.848;8.924;2023-04-10T13:09:13;97546.84;;;18.06;85.54
8697;BME280;4385;48.848;8.924;2023-04-10T13:11:39;97549.38;;;18.07;85.02
8697;BME280;4385;48.848;8.924;2023-04-10T13:14:04;97540.91;;;18.05;85.05
8697;BME280;4385;48.848;8.924;2023-04-10T13:16:29;97535.00;;;18.03;83.94
8697;BME280;4385;48.848;8.924;2023-04-10T13:18:55;97535.81;;;18.04;84.16
8697;BME280;4385;48.848;8.924;2023-04-10T13:21:20;97532.44;;;18.03;83.72
8697;BME280;4385;48.848;8.924;2023-04-10T13:23:50;97539.22;;;18.04;82.47
8697;BME280;4385;48.848;8.924;2023-04-10T13:26:15;97529.91;;;18.03;82.26
8697;BME280;4385;48.848;8.924;2023-04-10T13:28:40;97539.25;;;18.03;82.68
8697;BME280;4385;48.848;8.924;2023-04-10T13:31:06;97532.44;;;18.03;81.68
8697;BME280;4385;48.848;8.924;2023-04-10T13:33:31;97526.44;;;18.06;82.46
8697;BME280;4385;48.848;8.924;2023-04-10T13:35:56;97522.19;;;18.06;82.81
8697;BME280;4385;48.848;8.924;2023-04-10T13:38:21;97522.19;;;18.06;84.06
8697;BME280;4385;48.848;8.924;2023-04-10T13:40:47;97512.81;;;18.07;84.78
8697;BME280;4385;48.848;8.924;2023-04-10T13:43:12;97511.16;;;18.06;84.25
8697;BME280;4385;48.848;8.924;2023-04-10T13:45:37;97507.69;;;18.08;86.59
8697;BME280;4385;48.848;8.924;2023-04-10T13:48:03;97503.44;;;18.09;87.76
8697;BME280;4385;48.848;8.924;2023-04-10T13:50:31;97496.59;;;18.13;88.65